createdAt,value
2023-04-21T00:00:47.783Z,54.42
2023-04-21T00:03:15.859Z,54.35
2023-04-21T00:05:44.149Z,54.39
2023-04-21T00:08:12.101Z,54.38
2023-04-21T00:10:41.426Z,54.33
2023-04-21T00:13:09.426Z,54.51
2023-04-21T00:15:37.490Z,54.68
2023-04-21T00:18:06.287Z,54.81
2023-04-21T00:20:34.266Z,54.84
2023-04-21T00:23:02.238Z,54.98
2023-04-21T00:25:30.268Z,55.98
2023-04-21T00:27:59.750Z,55.38
2023-04-21T00:30:30.385Z,55.18
2023-04-21T00:32:58.439Z,54.82
2023-04-21T00:35:26.476Z,54.46
2023-04-21T00:37:54.401Z,54.78
2023-04-21T00:40:22.456Z,55.25
2023-04-21T00:42:50.381Z,55.07
2023-04-21T00:45:19.732Z,55.30
2023-04-21T00:47:47.696Z,54.65
2023-04-21T00:50:15.718Z,54.71
2023-04-21T00:52:43.882Z,55.17
2023-04-21T00:55:11.846Z,54.91
2023-04-21T00:57:39.753Z,55.10
2023-04-21T01:00:10.326Z,54.46
2023-04-21T01:02:40.619Z,54.65
2023-04-21T01:05:10.023Z,54.79
2023-04-21T01:07:38.042Z,54.39
2023-04-21T01:10:06.941Z,54.13
2023-04-21T01:12:35.633Z,54.53
2023-04-21T01:15:03.609Z,54.35
2023-04-21T01:17:31.564Z,54.37
2023-04-21T01:20:04.099Z,54.11
2023-04-21T01:22:37.071Z,54.30
2023-04-21T01:25:05.578Z,54.12
2023-04-21T01:27:33.472Z,54.50
2023-04-21T01:30:01.495Z,53.96
2023-04-21T01:32:30.406Z,54.40
2023-04-21T01:34:58.552Z,54.02
2023-04-21T01:37:27.447Z,54.12
2023-04-21T01:39:57.747Z,54.09
2023-04-21T01:42:26.460Z,53.91
2023-04-21T01:44:54.768Z,54.00
2023-04-21T01:47:22.875Z,54.31
2023-04-21T01:49:50.880Z,54.07
2023-04-21T01:52:18.794Z,54.39
2023-04-21T01:54:46.696Z,53.93
2023-04-21T01:57:18.180Z,54.09
2023-04-21T01:59:46.188Z,54.73
2023-04-21T02:02:14.278Z,54.95
2023-04-21T02:04:42.358Z,54.63
2023-04-21T02:07:10.404Z,54.11
2023-04-21T02:09:38.310Z,54.57
2023-04-21T02:12:06.757Z,54.45
2023-04-21T02:14:36.056Z,54.18
2023-04-21T02:17:03.949Z,54.62
2023-04-21T02:19:31.914Z,54.26
2023-04-21T02:21:59.836Z,54.43
2023-04-21T02:24:27.721Z,54.41
2023-04-21T02:26:57.686Z,54.79
2023-04-21T02:29:25.728Z,54.35
2023-04-21T02:32:03.021Z,54.60
2023-04-21T02:34:33.430Z,54.14
2023-04-21T02:37:01.471Z,54.34
2023-04-21T02:39:29.405Z,54.07
2023-04-21T02:41:58.441Z,54.41
2023-04-21T02:44:26.442Z,54.15
2023-04-21T02:46:55.830Z,54.53
2023-04-21T02:49:23.800Z,54.33
2023-04-21T02:51:51.718Z,54.22
2023-04-21T02:54:19.618Z,54.41
2023-04-21T02:56:47.533Z,54.12
2023-04-21T02:59:16.720Z,54.42
2023-04-21T03:01:44.756Z,54.58
2023-04-21T03:04:14.283Z,54.65
2023-04-21T03:06:42.233Z,54.47
2023-04-21T03:09:10.616Z,54.53
2023-04-21T03:11:38.459Z,54.59
2023-04-21T03:14:06.346Z,54.00
2023-04-21T03:16:34.360Z,54.35
2023-04-21T03:19:02.354Z,54.15
2023-04-21T03:21:32.016Z,54.29
2023-04-21T03:23:59.942Z,54.41
2023-04-21T03:26:27.870Z,54.51
2023-04-21T03:28:55.920Z,54.53
2023-04-21T03:31:23.870Z,54.42
2023-04-21T03:33:51.800Z,54.64
2023-04-21T03:36:19.701Z,55.01
2023-04-21T03:38:49.006Z,54.38
2023-04-21T03:41:16.870Z,54.63
2023-04-21T03:43:44.847Z,54.38
2023-04-21T03:46:19.164Z,53.99
2023-04-21T03:48:47.692Z,54.49
2023-04-21T03:51:15.979Z,54.21
2023-04-21T03:53:43.884Z,54.42
2023-04-21T03:56:13.188Z,54.34
2023-04-21T03:58:41.098Z,54.13
2023-04-21T04:01:09.018Z,54.12
2023-04-21T04:03:37.103Z,54.50
2023-04-21T04:06:05.582Z,54.52
2023-04-21T04:08:33.482Z,54.08
2023-04-21T04:11:01.470Z,54.45
2023-04-21T04:13:30.809Z,54.55
2023-04-21T04:15:59.064Z,54.05
2023-04-21T04:18:27.250Z,53.99
2023-04-21T04:20:55.112Z,54.49
2023-04-21T04:23:23.058Z,54.22
2023-04-21T04:25:52.002Z,54.09
2023-04-21T04:28:19.989Z,54.43
2023-04-21T04:30:49.313Z,54.38
2023-04-21T04:33:17.401Z,54.56
2023-04-21T04:35:45.232Z,55.03
2023-04-21T04:38:18.974Z,55.04
2023-04-21T04:40:46.917Z,54.81
2023-04-21T04:43:17.986Z,54.92
2023-04-21T04:45:46.336Z,55.18
2023-04-21T04:48:15.675Z,54.71
2023-04-21T04:50:43.579Z,55.23
2023-04-21T04:53:11.463Z,54.60
2023-04-21T04:55:39.422Z,54.60
2023-04-21T04:58:07.392Z,55.00
2023-04-21T05:00:37.073Z,54.51
2023-04-21T05:03:05.269Z,54.93
2023-04-21T05:05:34.773Z,54.63
2023-04-21T05:08:02.726Z,54.54
2023-04-21T05:10:30.660Z,53.49
2023-04-21T05:12:58.593Z,53.23
2023-04-21T05:15:26.557Z,52.76
2023-04-21T05:17:54.532Z,52.61
2023-04-21T05:20:22.919Z,52.63
2023-04-21T05:22:52.283Z,52.35
2023-04-21T05:25:20.196Z,51.73
2023-04-21T05:27:48.416Z,51.70
2023-04-21T05:30:16.423Z,52.69
2023-04-21T05:32:44.355Z,53.02
2023-04-21T05:35:12.312Z,53.12
2023-04-21T05:37:40.270Z,53.24
2023-04-21T05:40:10.480Z,52.90
2023-04-21T05:42:38.419Z,53.08
2023-04-21T05:45:07.327Z,52.94
2023-04-21T05:47:35.347Z,52.59
2023-04-21T05:50:03.307Z,52.79
2023-04-21T05:52:31.390Z,52.72
2023-04-21T05:54:59.704Z,52.75
2023-04-21T05:57:29.046Z,53.23
2023-04-21T05:59:56.934Z,52.86
2023-04-21T06:02:25.066Z,52.88
2023-04-21T06:04:53.656Z,52.78
2023-04-21T06:07:21.899Z,53.48
2023-04-21T06:09:51.439Z,53.14
2023-04-21T06:12:19.588Z,53.09
2023-04-21T06:14:48.976Z,53.44
2023-04-21T06:17:19.012Z,52.90
2023-04-21T06:19:52.950Z,52.91
2023-04-21T06:22:21.806Z,53.34
2023-04-21T06:24:49.788Z,52.66
2023-04-21T06:27:17.821Z,52.22
2023-04-21T06:29:45.661Z,52.67
2023-04-21T06:32:14.991Z,52.24
2023-04-21T06:34:42.911Z,52.13
2023-04-21T06:37:10.832Z,52.44
2023-04-21T06:39:38.748Z,52.53
2023-04-21T06:42:06.705Z,52.51
2023-04-21T06:44:34.626Z,52.40
2023-04-21T06:47:02.604Z,52.23
2023-04-21T06:49:31.899Z,51.90
2023-04-21T06:51:59.818Z,52.21
2023-04-21T06:54:27.938Z,52.20
2023-04-21T06:56:57.145Z,52.19
2023-04-21T06:59:25.058Z,51.67
2023-04-21T07:01:53.243Z,51.72
2023-04-21T07:04:21.168Z,52.16
2023-04-21T07:06:50.494Z,52.06
2023-04-21T07:09:18.910Z,51.59
2023-04-21T07:11:47.112Z,51.51
2023-04-21T07:14:15.242Z,51.77
2023-04-21T07:16:43.391Z,51.80
2023-04-21T07:19:11.540Z,51.63
2023-04-21T07:21:39.593Z,51.29
2023-04-21T07:24:10.018Z,51.36
2023-04-21T07:26:37.949Z,51.28
2023-04-21T07:29:05.889Z,51.69
2023-04-21T07:31:33.949Z,51.53
2023-04-21T07:34:02.248Z,51.46
2023-04-21T07:36:31.746Z,51.58
2023-04-21T07:39:00.066Z,51.07
2023-04-21T07:41:29.516Z,51.30
2023-04-21T07:43:57.422Z,50.97
2023-04-21T07:46:30.285Z,51.09
2023-04-21T07:48:58.352Z,51.39
2023-04-21T07:51:26.251Z,51.01
2023-04-21T07:53:54.168Z,50.98
2023-04-21T07:56:22.063Z,50.95
2023-04-21T07:58:51.375Z,51.21
2023-04-21T08:01:20.496Z,51.23
2023-04-21T08:03:48.933Z,50.87
2023-04-21T08:06:17.459Z,50.64
2023-04-21T08:08:45.758Z,50.66
2023-04-21T08:11:13.868Z,50.75
2023-04-21T08:13:41.765Z,50.79
2023-04-21T08:16:11.440Z,50.70
2023-04-21T08:18:39.855Z,50.72
2023-04-21T08:21:07.837Z,50.50
2023-04-21T08:23:35.909Z,50.40
2023-04-21T08:26:03.967Z,50.39
2023-04-21T08:28:31.930Z,50.26
2023-04-21T08:31:00.506Z,50.66
2023-04-21T08:33:29.829Z,50.19
2023-04-21T08:36:05.604Z,50.18
2023-04-21T08:38:36.517Z,50.25
2023-04-21T08:41:04.616Z,50.29
2023-04-21T08:43:32.558Z,50.30
2023-04-21T08:46:00.597Z,50.17
2023-04-21T08:48:29.928Z,50.18
2023-04-21T08:50:57.822Z,50.17
2023-04-21T08:53:25.708Z,49.94
2023-04-21T08:56:03.643Z,50.02
2023-04-21T08:58:38.650Z,50.13
2023-04-21T09:01:06.810Z,49.57
2023-04-21T09:03:36.325Z,49.86
2023-04-21T09:06:06.366Z,49.58
2023-04-21T09:08:34.887Z,49.47
2023-04-21T09:11:02.831Z,49.52
2023-04-21T09:13:31.435Z,49.37
2023-04-21T09:15:59.624Z,49.65
2023-04-21T09:18:28.638Z,49.55
2023-04-21T09:21:08.116Z,49.84
2023-04-21T09:23:44.261Z,49.71
2023-04-21T09:26:12.277Z,49.58
2023-04-21T09:28:42.949Z,49.66
2023-04-21T09:31:17.698Z,49.55
2023-04-21T09:36:22.238Z,49.31
2023-04-21T09:39:05.571Z,49.45
2023-04-21T09:41:40.765Z,49.46
2023-04-21T09:44:08.695Z,49.21
2023-04-21T09:46:37.596Z,49.21
2023-04-21T09:49:06.082Z,48.65
2023-04-21T09:54:15.689Z,48.88
2023-04-21T09:56:50.849Z,48.46
2023-04-21T09:59:23.369Z,48.29
2023-04-21T10:01:51.584Z,48.63
2023-04-21T10:04:20.595Z,48.72
2023-04-21T10:06:50.401Z,48.95
2023-04-21T10:09:18.950Z,48.82
2023-04-21T10:11:46.823Z,49.07
2023-04-21T10:14:14.728Z,48.83
2023-04-21T10:16:43.698Z,48.91
2023-04-21T10:19:26.815Z,48.61
2023-04-21T10:21:58.318Z,48.58
2023-04-21T10:24:26.427Z,48.69
2023-04-21T10:26:55.346Z,48.68
2023-04-21T10:29:34.768Z,48.71
2023-04-21T10:32:09.426Z,48.58
2023-04-21T10:34:38.342Z,48.46
2023-04-21T10:37:20.154Z,48.38
2023-04-21T10:39:54.955Z,48.51
2023-04-21T10:42:27.421Z,48.66
2023-04-21T10:45:03.831Z,48.58
2023-04-21T10:47:34.516Z,48.54
2023-04-21T10:50:04.113Z,48.36
2023-04-21T10:52:34.565Z,48.50
2023-04-21T10:55:12.239Z,48.26
2023-04-21T10:57:42.392Z,48.33
2023-04-21T11:00:11.538Z,48.32
2023-04-21T11:02:41.238Z,48.42
2023-04-21T11:05:11.562Z,48.44
2023-04-21T11:07:41.094Z,48.22
2023-04-21T11:10:11.357Z,48.15
2023-04-21T11:12:40.170Z,48.07
2023-04-21T11:15:09.599Z,47.81
2023-04-21T11:17:38.575Z,47.97
2023-04-21T11:20:08.539Z,47.92
2023-04-21T11:22:37.821Z,47.66
2023-04-21T11:25:08.691Z,47.91
2023-04-21T11:27:36.663Z,47.77
2023-04-21T11:30:04.904Z,47.79
2023-04-21T11:32:32.863Z,47.81
2023-04-21T11:35:01.056Z,47.54
2023-04-21T11:37:28.974Z,47.60
2023-04-21T11:39:59.955Z,47.63
2023-04-21T11:42:29.349Z,47.48
2023-04-21T11:44:57.524Z,47.49
2023-04-21T11:47:26.114Z,47.49
2023-04-21T11:49:56.300Z,47.87
2023-04-21T11:52:25.449Z,47.42
2023-04-21T11:54:59.150Z,47.37
2023-04-21T11:57:29.178Z,47.40
2023-04-21T11:59:59.560Z,47.49
2023-04-21T12:02:29.298Z,47.29
2023-04-21T12:05:04.443Z,47.14
2023-04-21T12:07:33.007Z,47.27
2023-04-21T12:10:01.345Z,47.15
2023-04-21T12:12:31.089Z,47.21
2023-04-21T12:14:59.220Z,47.12
2023-04-21T12:17:27.276Z,47.07
2023-04-21T12:19:55.197Z,47.04
2023-04-21T12:22:23.741Z,47.02
2023-04-21T12:24:51.646Z,46.97
2023-04-21T12:27:20.045Z,46.71
2023-04-21T12:29:49.542Z,46.71
2023-04-21T12:32:17.578Z,46.74
2023-04-21T12:34:45.687Z,46.79
2023-04-21T12:37:13.645Z,46.84
2023-04-21T12:39:41.539Z,46.74
2023-04-21T12:42:09.660Z,46.49
2023-04-21T12:44:38.639Z,46.65
2023-04-21T12:47:08.370Z,46.49
2023-04-21T12:49:36.787Z,46.65
2023-04-21T12:52:06.151Z,46.39
2023-04-21T12:54:34.273Z,46.61
2023-04-21T12:57:02.234Z,46.65
2023-04-21T12:59:30.266Z,46.57
2023-04-21T13:01:58.544Z,46.13
2023-04-21T13:04:28.150Z,46.36
2023-04-21T13:06:56.421Z,46.39
2023-04-21T13:09:24.312Z,46.28
2023-04-21T13:11:52.706Z,46.51
2023-04-21T13:14:20.670Z,46.50
2023-04-21T13:16:48.658Z,46.47
2023-04-21T13:19:16.814Z,46.53
2023-04-21T13:21:46.326Z,46.27
2023-04-21T13:24:14.931Z,46.47
2023-04-21T13:26:43.019Z,46.23
2023-04-21T13:29:10.947Z,46.22
2023-04-21T13:31:39.077Z,46.12
2023-04-21T13:34:07.176Z,45.97
2023-04-21T13:36:35.094Z,45.96
2023-04-21T13:39:05.864Z,45.83
2023-04-21T13:41:33.826Z,45.74
2023-04-21T13:44:01.786Z,46.14
2023-04-21T13:46:29.834Z,46.17
2023-04-21T13:48:58.032Z,46.05
2023-04-21T13:51:26.016Z,45.70
2023-04-21T13:53:53.949Z,45.81
2023-04-21T13:56:23.247Z,45.64
2023-04-21T13:58:51.242Z,45.79
2023-04-21T14:01:21.361Z,46.04
2023-04-21T14:03:49.982Z,45.76
2023-04-21T14:06:18.066Z,46.14
2023-04-21T14:08:46.309Z,45.68
2023-04-21T14:11:14.253Z,45.80
2023-04-21T14:13:52.973Z,45.68
2023-04-21T14:16:31.725Z,45.88
2023-04-21T14:18:59.748Z,45.66
2023-04-21T14:21:27.759Z,45.70
2023-04-21T14:23:55.699Z,45.51
2023-04-21T14:26:23.715Z,44.93
2023-04-21T14:28:53.012Z,44.90
2023-04-21T14:31:22.260Z,45.01
2023-04-21T14:33:50.474Z,44.76
2023-04-21T14:36:18.498Z,44.47
2023-04-21T14:38:46.470Z,43.47
2023-04-21T14:41:14.536Z,42.98
2023-04-21T14:43:42.493Z,42.91
2023-04-21T14:46:11.868Z,42.25
2023-04-21T14:48:39.862Z,41.24
2023-04-21T14:51:09.554Z,40.86
2023-04-21T14:53:37.497Z,40.24
2023-04-21T14:56:05.897Z,39.96
2023-04-21T14:58:34.041Z,39.99
2023-04-21T15:01:01.996Z,39.81
2023-04-21T15:03:31.638Z,39.72
2023-04-21T15:05:59.650Z,39.38
2023-04-21T15:08:27.733Z,39.38
2023-04-21T15:10:56.417Z,39.31
2023-04-21T15:13:24.434Z,39.27
2023-04-21T15:15:52.627Z,39.27
2023-04-21T15:18:20.999Z,39.25
2023-04-21T15:20:50.320Z,39.16
2023-04-21T15:23:18.262Z,39.00
2023-04-21T15:25:46.223Z,39.06
2023-04-21T15:28:14.175Z,39.01
2023-04-21T15:30:42.196Z,39.03
2023-04-21T15:33:11.615Z,38.73
2023-04-21T15:35:39.678Z,38.96
2023-04-21T15:38:09.336Z,39.11
2023-04-21T15:40:43.697Z,39.41
2023-04-21T15:43:23.040Z,39.66
2023-04-21T15:45:52.343Z,40.01
2023-04-21T15:48:22.246Z,40.55
2023-04-21T15:50:50.253Z,40.67
2023-04-21T15:53:20.313Z,41.01
2023-04-21T15:55:48.585Z,40.91
2023-04-21T15:58:19.588Z,41.02
2023-04-21T16:00:47.509Z,41.28
2023-04-21T16:03:16.164Z,41.70
2023-04-21T16:05:44.503Z,41.64
2023-04-21T16:08:13.109Z,42.07
2023-04-21T16:10:42.505Z,42.58
2023-04-21T16:13:10.585Z,42.63
2023-04-21T16:15:38.630Z,42.47
2023-04-21T16:18:08.360Z,42.59
2023-04-21T16:20:36.655Z,42.39
2023-04-21T16:23:04.980Z,42.42
2023-04-21T16:25:33.074Z,43.14
2023-04-21T16:28:02.552Z,42.67
2023-04-21T16:30:30.504Z,43.30
2023-04-21T16:32:58.438Z,43.20
2023-04-21T16:35:26.585Z,43.39
2023-04-21T16:37:54.615Z,43.49
2023-04-21T16:40:24.405Z,43.52
2023-04-21T16:42:52.592Z,43.54
2023-04-21T16:45:22.154Z,43.33
2023-04-21T16:47:50.260Z,43.22
2023-04-21T16:50:18.429Z,43.26
2023-04-21T16:52:46.460Z,43.90
2023-04-21T16:55:14.407Z,43.49
2023-04-21T16:57:42.720Z,43.77
2023-04-21T17:00:11.701Z,43.41
2023-04-21T17:02:41.239Z,43.44
2023-04-21T17:05:10.180Z,43.91
2023-04-21T17:07:39.539Z,43.67
2023-04-21T17:10:08.484Z,43.44
2023-04-21T17:12:36.429Z,43.52
2023-04-21T17:15:05.178Z,43.49
2023-04-21T17:17:35.930Z,43.46
2023-04-21T17:20:07.091Z,43.82
2023-04-21T17:22:36.915Z,43.38
2023-04-21T17:25:05.391Z,43.26
2023-04-21T17:27:33.367Z,43.24
2023-04-21T17:30:01.820Z,43.65
2023-04-21T17:32:32.753Z,43.76
2023-04-21T17:35:01.460Z,43.29
2023-04-21T17:37:31.126Z,43.78
2023-04-21T17:40:01.803Z,43.83
2023-04-21T17:42:30.693Z,43.83
2023-04-21T17:44:58.707Z,43.70
2023-04-21T17:47:26.916Z,43.67
2023-04-21T17:49:54.963Z,43.51
2023-04-21T17:52:22.892Z,43.85
2023-04-21T17:54:52.214Z,44.16
2023-04-21T17:57:20.240Z,43.79
2023-04-21T17:59:48.190Z,44.21
2023-04-21T18:02:16.235Z,44.38
2023-04-21T18:04:44.999Z,44.00
2023-04-21T18:07:13.132Z,44.50
2023-04-21T18:09:41.061Z,44.60
2023-04-21T18:12:10.441Z,44.55
2023-04-21T18:14:38.651Z,44.36
2023-04-21T18:17:07.141Z,44.42
2023-04-21T18:19:35.082Z,44.91
2023-04-21T18:22:03.356Z,44.47
2023-04-21T18:24:31.418Z,44.90
2023-04-21T18:26:59.371Z,44.78
2023-04-21T18:29:28.696Z,45.22
2023-04-21T18:31:56.758Z,45.18
2023-04-21T18:34:24.718Z,45.54
2023-04-21T18:36:52.648Z,45.76
2023-04-21T18:39:20.605Z,46.13
2023-04-21T18:41:49.228Z,45.92
2023-04-21T18:44:17.215Z,46.32
2023-04-21T18:46:46.543Z,46.67
2023-04-21T18:49:14.516Z,46.25
2023-04-21T18:51:42.473Z,46.55
2023-04-21T18:54:10.878Z,46.89
2023-04-21T18:56:38.881Z,46.93
2023-04-21T18:59:07.118Z,46.89
2023-04-21T19:01:35.099Z,47.45
2023-04-21T19:04:04.622Z,47.53
2023-04-21T19:06:32.695Z,47.39
2023-04-21T19:09:00.779Z,47.34
2023-04-21T19:11:29.453Z,47.78
2023-04-21T19:13:57.464Z,47.80
2023-04-21T19:16:25.456Z,47.81
2023-04-21T19:18:53.369Z,47.82
2023-04-21T19:21:22.718Z,48.10
2023-04-21T19:23:50.824Z,48.06
2023-04-21T19:26:18.786Z,48.22
2023-04-21T19:28:46.841Z,48.21
2023-04-21T19:31:15.609Z,48.00
2023-04-21T19:33:43.566Z,48.21
2023-04-21T19:36:11.959Z,48.32
2023-04-21T19:38:41.267Z,48.36
2023-04-21T19:41:09.293Z,48.55
2023-04-21T19:43:37.264Z,48.71
2023-04-21T19:46:05.587Z,48.63
2023-04-21T19:48:33.599Z,48.83
2023-04-21T19:51:02.046Z,48.67
2023-04-21T19:53:29.968Z,48.72
2023-04-21T19:55:59.302Z,48.78
2023-04-21T19:58:39.348Z,48.79
2023-04-21T20:01:08.949Z,48.93
2023-04-21T20:03:37.280Z,48.94
2023-04-21T20:06:05.921Z,48.99
2023-04-21T20:08:33.874Z,49.09
2023-04-21T20:11:03.238Z,49.14
2023-04-21T20:13:31.127Z,49.16
2023-04-21T20:15:59.337Z,49.19
2023-04-21T20:18:27.468Z,49.19
2023-04-21T20:20:55.618Z,49.20
2023-04-21T20:23:23.601Z,49.32
2023-04-21T20:25:51.732Z,49.43
2023-04-21T20:28:21.266Z,49.46
2023-04-21T20:30:49.205Z,49.54
2023-04-21T20:33:18.032Z,49.55
2023-04-21T20:35:46.045Z,49.36
2023-04-21T20:38:14.319Z,49.51
2023-04-21T20:40:42.263Z,49.55
2023-04-21T20:43:10.376Z,49.62
2023-04-21T20:45:41.358Z,49.65
2023-04-21T20:48:09.381Z,49.64
2023-04-21T20:50:37.434Z,49.62
2023-04-21T20:53:07.398Z,49.70
2023-04-21T20:55:35.371Z,49.64
2023-04-21T20:58:03.413Z,49.92
2023-04-21T21:00:32.867Z,49.76
2023-04-21T21:03:02.425Z,50.11
2023-04-21T21:05:33.397Z,50.00
2023-04-21T21:08:01.437Z,49.81
2023-04-21T21:10:29.391Z,49.85
2023-04-21T21:12:58.131Z,50.04
2023-04-21T21:15:26.160Z,49.87
2023-04-21T21:17:54.119Z,49.87
2023-04-21T21:20:23.612Z,50.06
2023-04-21T21:22:51.560Z,50.19
2023-04-21T21:25:19.592Z,50.15
2023-04-21T21:27:47.661Z,50.21
2023-04-21T21:30:15.971Z,50.04
2023-04-21T21:32:44.061Z,50.27
2023-04-21T21:35:12.130Z,50.10
2023-04-21T21:37:41.472Z,50.05
2023-04-21T21:40:10.873Z,50.27
2023-04-21T21:42:38.821Z,50.22
2023-04-21T21:45:07.887Z,50.21
2023-04-21T21:47:39.417Z,50.40
2023-04-21T21:50:11.233Z,50.40
2023-04-21T21:52:39.236Z,50.26
2023-04-21T21:55:09.784Z,50.55
2023-04-21T21:57:37.934Z,50.31
2023-04-21T22:00:08.221Z,50.32
2023-04-21T22:02:36.515Z,50.43
2023-04-21T22:05:05.114Z,50.51
2023-04-21T22:07:33.057Z,50.38
2023-04-21T22:10:01.229Z,50.39
2023-04-21T22:12:32.065Z,50.41
2023-04-21T22:15:00.046Z,50.32
2023-04-21T22:17:29.578Z,50.42
2023-04-21T22:19:57.784Z,50.56
2023-04-21T22:22:25.762Z,50.62
2023-04-21T22:24:53.684Z,50.43
2023-04-21T22:27:21.640Z,50.70
2023-04-21T22:29:51.434Z,50.88
2023-04-21T22:32:19.367Z,50.55
2023-04-21T22:34:47.344Z,50.60
2023-04-21T22:37:15.839Z,50.52
2023-04-21T22:39:43.788Z,50.55
2023-04-21T22:42:11.695Z,50.82
2023-04-21T22:44:39.655Z,50.81
2023-04-21T22:47:10.639Z,50.66
2023-04-21T22:49:39.158Z,50.96
2023-04-21T22:52:07.504Z,50.70
2023-04-21T22:54:35.438Z,50.84
2023-04-21T22:57:03.570Z,50.95
2023-04-21T22:59:31.555Z,50.88
2023-04-21T23:01:59.672Z,50.74
2023-04-21T23:04:29.121Z,50.93
2023-04-21T23:06:57.049Z,50.83
2023-04-21T23:09:25.059Z,50.92
2023-04-21T23:11:52.988Z,51.05
2023-04-21T23:14:20.921Z,50.89
2023-04-21T23:16:48.921Z,51.05
2023-04-21T23:19:16.888Z,50.96
2023-04-21T23:21:46.560Z,50.90
2023-04-21T23:24:14.508Z,51.08
2023-04-21T23:26:42.448Z,50.92
2023-04-21T23:29:10.548Z,50.95
2023-04-21T23:31:38.910Z,51.22
2023-04-21T23:34:06.911Z,50.82
2023-04-21T23:36:34.853Z,51.20
2023-04-21T23:39:04.381Z,50.87
2023-04-21T23:41:32.276Z,51.12
2023-04-21T23:44:00.224Z,51.27
2023-04-21T23:46:28.292Z,51.03
2023-04-21T23:48:56.299Z,51.27
2023-04-21T23:51:24.287Z,51.15
2023-04-21T23:53:52.245Z,51.31
2023-04-21T23:56:21.811Z,50.93
2023-04-21T23:58:49.796Z,51.18
